Time;durP1;ratioP1;P1;durP2;ratioP2;P2;SDS_P1;SDS_P2;PMS_P1;PMS_P2;Temp;Humidity;BMP_temperature;BMP_pressure;BME280_temperature;BME280_humidity;BME280_pressure;Samples;Min_cycle;Max_cycle;Signal;HPM_P1;HPM_P2
2023/12/20 00:00:03;;;;;;;26.40;12.57;;;7.40;99.90;;;;;;5093428;28;20085;-69
2023/12/20 00:02:28;;;;;;;28.17;12.63;;;7.30;99.90;;;;;;5093326;28;20032;-68
2023/12/20 00:04:54;;;;;;;30.95;14.35;;;7.30;99.90;;;;;;5093251;28;20442;-69
2023/12/20 00:07:19;;;;;;;29.40;13.82;;;7.30;99.90;;;;;;5093175;28;20076;-69
2023/12/20 00:09:45;;;;;;;34.05;15.45;;;7.20;99.90;;;;;;5092847;28;20025;-68
2023/12/20 00:12:10;;;;;;;32.45;16.05;;;7.20;99.90;;;;;;5093219;28;20020;-69
2023/12/20 00:14:36;;;;;;;37.22;16.63;;;7.20;99.90;;;;;;5093178;28;20103;-69
2023/12/20 00:17:01;;;;;;;35.70;16.73;;;7.20;99.90;;;;;;5092870;28;20020;-68
2023/12/20 00:19:27;;;;;;;38.35;17.38;;;7.20;99.90;;;;;;5093075;28;20036;-69
2023/12/20 00:21:52;;;;;;;35.67;17.73;;;7.10;99.90;;;;;;5092820;28;20028;-69
2023/12/20 00:24:18;;;;;;;39.50;17.10;;;7.20;99.90;;;;;;5093037;28;20024;-69
2023/12/20 00:26:44;;;;;;;42.30;18.33;;;7.20;99.90;;;;;;5093102;28;20024;-69
2023/12/20 00:29:09;;;;;;;43.60;17.75;;;7.10;99.90;;;;;;5092627;28;20085;-69
2023/12/20 00:31:35;;;;;;;49.00;19.27;;;7.10;99.90;;;;;;5092601;28;20119;-69
2023/12/20 00:34:01;;;;;;;44.75;19.00;;;7.10;99.90;;;;;;5093006;28;20048;-69
2023/12/20 00:36:27;;;;;;;42.72;18.30;;;7.10;99.90;;;;;;5093007;28;20059;-69
2023/12/20 00:38:52;;;;;;;41.88;18.17;;;7.10;99.90;;;;;;5092762;28;20130;-69
2023/12/20 00:41:18;;;;;;;47.15;18.88;;;7.10;99.90;;;;;;5092920;28;20025;-69
2023/12/20 00:43:44;;;;;;;51.03;19.83;;;7.00;99.90;;;;;;5092880;28;20032;-68
2023/12/20 00:46:09;;;;;;;44.95;19.38;;;7.00;99.90;;;;;;5092467;28;20020;-69
2023/12/20 00:48:35;;;;;;;43.70;19.73;;;6.90;99.90;;;;;;5096358;28;20088;-69
2023/12/20 00:51:00;;;;;;;46.63;18.45;;;6.80;99.90;;;;;;5096083;28;20031;-69
2023/12/20 00:53:26;;;;;;;46.17;20.13;;;6.80;99.90;;;;;;5096401;28;20032;-69
2023/12/20 00:55:51;;;;;;;53.33;20.65;;;6.80;99.90;;;;;;5096495;28;20051;-69
2023/12/20 00:58:17;;;;;;;44.42;17.98;;;6.80;99.90;;;;;;5096456;28;20032;-69
2023/12/20 01:00:43;;;;;;;49.92;19.20;;;6.80;99.90;;;;;;5095929;28;20021;-70
2023/12/20 01:03:09;;;;;;;45.05;17.80;;;6.80;99.90;;;;;;5096177;28;20366;-69
2023/12/20 01:05:34;;;;;;;49.92;18.17;;;6.80;99.90;;;;;;5096275;28;20111;-69
2023/12/20 01:08:02;;;;;;;47.47;18.05;;;6.90;99.90;;;;;;5096378;28;20039;-69
2023/12/20 01:10:29;;;;;;;42.15;17.10;;;6.90;99.90;;;;;;5096161;28;20032;-69
2023/12/20 01:12:55;;;;;;;39.28;16.25;;;6.80;99.90;;;;;;5096023;28;20432;-68
2023/12/20 01:15:20;;;;;;;43.38;15.70;;;6.80;99.90;;;;;;5095993;28;20028;-68
2023/12/20 01:17:46;;;;;;;44.25;16.25;;;6.90;99.90;;;;;;5095971;28;20054;-69
2023/12/20 01:20:11;;;;;;;39.13;16.40;;;6.80;99.90;;;;;;5096045;28;20398;-69
2023/12/20 01:22:37;;;;;;;39.78;15.68;;;6.80;99.90;;;;;;5095679;28;20025;-69
2023/12/20 01:25:02;;;;;;;39.15;15.50;;;6.70;99.90;;;;;;5095951;28;20028;-69
2023/12/20 01:27:29;;;;;;;31.90;13.85;;;6.80;99.90;;;;;;5095739;28;20035;-69
2023/12/20 01:29:54;;;;;;;32.28;14.13;;;6.80;99.90;;;;;;5095668;28;20028;-69
2023/12/20 01:32:20;;;;;;;36.45;14.10;;;6.70;99.90;;;;;;5095333;28;20111;-69
2023/12/20 01:34:45;;;;;;;31.02;11.52;;;6.60;99.90;;;;;;5095722;28;20537;-68
2023/12/20 01:37:11;;;;;;;27.92;12.13;;;6.60;99.90;;;;;;5095614;28;20459;-68
2023/12/20 01:39:36;;;;;;;32.30;11.05;;;6.50;99.90;;;;;;5095382;28;20051;-69
2023/12/20 01:42:02;;;;;;;36.08;12.75;;;6.50;99.90;;;;;;5095379;28;20085;-69
2023/12/20 01:44:27;;;;;;;38.85;12.32;;;6.40;99.90;;;;;;5095499;28;20027;-69
2023/12/20 01:46:54;;;;;;;27.08;12.43;;;6.40;99.90;;;;;;5095396;28;20020;-68
2023/12/20 01:49:20;;;;;;;35.55;12.63;;;6.40;99.90;;;;;;5095404;28;20031;-69
2023/12/20 01:51:46;;;;;;;33.20;12.80;;;6.40;99.90;;;;;;5095386;28;20024;-69
2023/12/20 01:54:12;;;;;;;27.48;11.68;;;6.40;99.90;;;;;;5094964;28;20493;-69
2023/12/20 01:56:39;;;;;;;31.77;12.23;;;6.40;99.90;;;;;;5095344;28;20092;-69
2023/12/20 01:59:06;;;;;;;32.72;12.98;;;6.40;99.90;;;;;;5095375;28;20123;-69
2023/12/20 02:01:31;;;;;;;32.97;13.32;;;6.30;99.90;;;;;;5094865;28;20031;-68
2023/12/20 02:03:58;;;;;;;32.30;12.23;;;6.30;99.90;;;;;;5095219;28;20032;-69
2023/12/20 02:06:29;;;;;;;36.22;13.70;;;6.30;99.90;;;;;;5094668;28;20028;-69
2023/12/20 02:08:54;;;;;;;34.83;12.68;;;6.30;99.90;;;;;;5094972;28;20036;-69
2023/12/20 02:11:21;;;;;;;31.70;13.18;;;6.30;99.90;;;;;;5094699;28;20028;-69
2023/12/20 02:13:46;;;;;;;33.50;13.15;;;6.30;99.90;;;;;;5094524;28;20478;-69
2023/12/20 02:16:12;;;;;;;31.17;14.00;;;6.30;99.90;;;;;;5094490;28;20024;-69
2023/12/20 02:18:38;;;;;;;28.88;13.45;;;6.30;99.90;;;;;;5094855;28;20043;-69
2023/12/20 02:21:05;;;;;;;35.28;14.23;;;6.30;99.90;;;;;;5094819;28;20491;-68
2023/12/20 02:23:31;;;;;;;29.95;13.63;;;6.30;99.90;;;;;;5094867;28;20381;-69
2023/12/20 02:25:56;;;;;;;27.90;13.00;;;6.20;99.90;;;;;;5094769;28;20024;-68
2023/12/20 02:28:23;;;;;;;37.85;13.90;;;6.20;99.90;;;;;;5094457;28;20024;-68
2023/12/20 02:30:49;;;;;;;27.73;13.18;;;6.20;99.90;;;;;;5094569;28;20110;-68
2023/12/20 02:33:15;;;;;;;30.95;12.93;;;6.30;99.90;;;;;;5094555;28;20448;-68
2023/12/20 02:35:41;;;;;;;36.17;12.25;;;6.30;99.90;;;;;;5094178;28;20385;-69
2023/12/20 02:38:06;;;;;;;36.35;11.48;;;6.20;99.90;;;;;;5094132;28;20020;-69
2023/12/20 02:40:32;;;;;;;29.95;11.00;;;6.30;99.90;;;;;;5094053;28;20036;-68
2023/12/20 02:42:57;;;;;;;31.85;10.60;;;6.30;99.90;;;;;;5093944;28;20028;-69
2023/12/20 02:45:23;;;;;;;31.33;10.32;;;6.30;99.90;;;;;;5094256;28;20035;-69
2023/12/20 02:47:49;;;;;;;24.88;9.65;;;6.30;99.90;;;;;;5094371;28;20020;-68
2023/12/20 02:50:14;;;;;;;26.05;9.32;;;6.30;99.90;;;;;;5094195;28;20028;-68
2023/12/20 02:52:39;;;;;;;28.25;8.45;;;6.30;99.90;;;;;;5093849;28;20023;-68
2023/12/20 02:55:05;;;;;;;28.35;9.30;;;6.50;99.90;;;;;;5093900;28;20108;-69
2023/12/20 02:57:32;;;;;;;25.25;8.73;;;6.50;99.90;;;;;;5094153;28;20032;-69
2023/12/20 02:59:57;;;;;;;24.73;8.18;;;6.40;99.90;;;;;;5094045;28;20074;-69
2023/12/20 03:02:23;;;;;;;30.65;8.98;;;6.40;99.90;;;;;;5093786;28;20554;-69
2023/12/20 03:04:48;;;;;;;28.17;8.95;;;6.40;99.90;;;;;;5093957;28;20024;-69
2023/12/20 03:07:14;;;;;;;37.28;8.50;;;6.40;99.90;;;;;;5093572;28;20117;-69
2023/12/20 03:09:39;;;;;;;23.35;8.82;;;6.30;99.90;;;;;;5093679;28;20024;-69
2023/12/20 03:12:05;;;;;;;25.95;9.07;;;6.30;99.90;;;;;;5093879;28;20034;-69
2023/12/20 03:14:30;;;;;;;23.50;8.85;;;6.30;99.90;;;;;;5093825;28;20393;-68
2023/12/20 03:16:56;;;;;;;38.13;10.23;;;6.20;99.90;;;;;;5093845;28;20478;-68
2023/12/20 03:19:21;;;;;;;27.27;10.38;;;6.20;99.90;;;;;;5093691;28;20040;-69
2023/12/20 03:21:47;;;;;;;29.02;10.40;;;6.20;99.90;;;;;;5093523;28;20051;-69
2023/12/20 03:24:12;;;;;;;25.77;9.50;;;6.30;99.90;;;;;;5093687;28;20512;-69
2023/12/20 03:26:38;;;;;;;27.98;9.98;;;6.30;99.90;;;;;;5093659;28;20024;-69
2023/12/20 03:29:03;;;;;;;26.55;9.50;;;6.40;99.90;;;;;;5093704;28;20023;-68
2023/12/20 03:31:29;;;;;;;26.17;8.75;;;6.40;99.90;;;;;;5093455;28;20027;-69
2023/12/20 03:33:54;;;;;;;34.08;9.98;;;6.40;99.90;;;;;;5093572;28;20040;-69
2023/12/20 03:36:20;;;;;;;25.75;8.30;;;6.40;99.90;;;;;;5093586;28;20036;-68
2023/12/20 03:38:46;;;;;;;22.40;8.23;;;6.30;99.90;;;;;;5093353;28;20478;-68
2023/12/20 03:41:11;;;;;;;34.15;9.18;;;6.30;99.90;;;;;;5093406;28;20036;-68
2023/12/20 03:43:37;;;;;;;28.58;8.88;;;6.30;99.90;;;;;;5093480;28;20063;-69
2023/12/20 03:46:04;;;;;;;21.38;7.97;;;6.40;99.90;;;;;;5093173;28;20027;-68
2023/12/20 03:48:31;;;;;;;38.13;9.02;;;6.40;99.90;;;;;;5093382;28;20043;-69
2023/12/20 03:50:57;;;;;;;30.65;10.13;;;6.30;99.90;;;;;;5093360;28;20028;-68
2023/12/20 03:53:23;;;;;;;31.00;9.60;;;6.40;99.90;;;;;;5093374;28;20138;-69
2023/12/20 03:55:48;;;;;;;32.08;9.82;;;6.40;99.90;;;;;;5072687;28;20030;-68
2023/12/20 03:58:14;;;;;;;24.23;8.60;;;6.40;99.90;;;;;;5073196;28;20123;-68
2023/12/20 04:00:39;;;;;;;35.17;10.05;;;6.40;99.90;;;;;;5073159;28;20033;-69
2023/12/20 04:03:05;;;;;;;26.92;9.13;;;6.40;99.90;;;;;;5073161;28;20026;-68
2023/12/20 04:05:31;;;;;;;23.75;9.48;;;6.40;99.90;;;;;;5073019;28;20020;-68
2023/12/20 04:07:56;;;;;;;19.20;8.43;;;6.40;99.90;;;;;;5073091;28;20051;-68
2023/12/20 04:10:22;;;;;;;25.40;9.43;;;6.40;99.90;;;;;;5072617;28;20020;-68
2023/12/20 04:12:47;;;;;;;29.73;9.50;;;6.30;99.90;;;;;;5073049;28;20029;-68
2023/12/20 04:15:13;;;;;;;32.42;9.52;;;6.30;99.90;;;;;;5073000;28;20024;-68
2023/12/20 04:17:38;;;;;;;24.60;8.85;;;6.20;99.90;;;;;;5073079;28;20028;-69
2023/12/20 04:20:05;;;;;;;31.17;9.43;;;6.10;99.90;;;;;;5072539;28;20024;-68
2023/12/20 04:22:30;;;;;;;24.42;10.63;;;6.10;99.90;;;;;;5074369;28;20090;-68
2023/12/20 04:24:56;;;;;;;27.35;9.93;;;6.10;99.90;;;;;;5076690;28;20382;-68
2023/12/20 04:27:21;;;;;;;28.30;9.38;;;6.00;99.90;;;;;;5076294;28;20115;-69
2023/12/20 04:29:47;;;;;;;24.13;9.70;;;6.10;99.90;;;;;;5076703;28;20112;-68
2023/12/20 04:32:12;;;;;;;34.33;10.70;;;6.00;99.90;;;;;;5076677;28;20078;-69
2023/12/20 04:34:38;;;;;;;26.65;9.52;;;6.00;99.90;;;;;;5076677;28;20115;-68
2023/12/20 04:37:04;;;;;;;36.80;9.40;;;6.00;99.90;;;;;;5076539;28;20043;-69
2023/12/20 04:39:29;;;;;;;29.98;9.65;;;6.10;99.90;;;;;;5076312;28;20055;-69
2023/12/20 04:41:55;;;;;;;23.08;8.60;;;6.10;99.90;;;;;;5075978;28;20037;-69
2023/12/20 04:44:20;;;;;;;26.92;8.80;;;6.10;99.90;;;;;;5076013;28;20024;-69
2023/12/20 04:46:46;;;;;;;25.83;8.48;;;6.10;99.90;;;;;;5076298;28;20032;-69
2023/12/20 04:49:11;;;;;;;38.83;10.60;;;6.10;99.90;;;;;;5076264;28;20033;-69
2023/12/20 04:51:38;;;;;;;35.72;10.07;;;6.10;99.90;;;;;;5076352;28;20024;-69
2023/12/20 04:54:03;;;;;;;29.35;11.57;;;6.20;99.90;;;;;;5075952;28;20025;-69
2023/12/20 04:56:29;;;;;;;33.33;11.88;;;6.20;99.90;;;;;;5075737;28;20087;-69
2023/12/20 04:58:54;;;;;;;44.25;13.40;;;6.30;99.90;;;;;;5075687;28;20458;-69
2023/12/20 05:01:20;;;;;;;32.53;11.90;;;6.30;99.90;;;;;;5075912;28;20032;-69
2023/12/20 05:03:46;;;;;;;38.00;12.18;;;6.30;99.90;;;;;;5076088;28;20107;-69
2023/12/20 05:06:11;;;;;;;30.45;12.38;;;6.30;99.90;;;;;;5075990;28;20065;-69
2023/12/20 05:08:37;;;;;;;32.78;13.05;;;6.30;99.90;;;;;;5076002;28;20044;-69
2023/12/20 05:11:03;;;;;;;32.65;11.98;;;6.40;99.90;;;;;;5075860;28;20043;-69
2023/12/20 05:13:28;;;;;;;28.83;12.20;;;6.40;99.90;;;;;;5075861;28;20029;-69
2023/12/20 05:15:54;;;;;;;37.78;12.68;;;6.30;99.90;;;;;;5075791;28;20044;-68
2023/12/20 05:18:21;;;;;;;31.80;11.70;;;6.40;99.90;;;;;;5075499;28;20040;-71
2023/12/20 05:20:46;;;;;;;44.83;13.80;;;6.30;99.90;;;;;;5075689;28;20036;-69
2023/12/20 05:23:13;;;;;;;33.97;13.23;;;6.40;99.90;;;;;;5075509;28;20398;-69
2023/12/20 05:25:39;;;;;;;34.88;13.48;;;6.30;99.90;;;;;;5075629;28;20024;-69
2023/12/20 05:28:04;;;;;;;40.08;12.60;;;6.30;99.90;;;;;;5075723;28;20198;-69
2023/12/20 05:30:30;;;;;;;32.50;11.30;;;6.20;99.90;;;;;;5075544;28;20135;-69
2023/12/20 05:32:55;;;;;;;37.95;12.00;;;6.20;99.90;;;;;;5075122;28;20028;-69
2023/12/20 05:35:23;;;;;;;44.08;12.45;;;6.20;99.90;;;;;;5075539;28;20052;-69
2023/12/20 05:37:49;;;;;;;35.22;12.27;;;6.20;99.90;;;;;;5075415;28;20059;-69
2023/12/20 05:40:14;;;;;;;38.35;13.25;;;6.20;99.90;;;;;;5074942;28;20510;-69
2023/12/20 05:42:40;;;;;;;31.73;11.75;;;6.20;99.90;;;;;;5075228;28;20036;-69
2023/12/20 05:45:06;;;;;;;36.90;12.55;;;6.20;99.90;;;;;;5075395;28;20039;-68
2023/12/20 05:47:31;;;;;;;39.28;12.65;;;6.10;99.90;;;;;;5074859;28;20018;-70
2023/12/20 05:49:57;;;;;;;38.00;13.02;;;6.10;99.90;;;;;;5075216;28;20108;-68
2023/12/20 05:52:22;;;;;;;33.80;11.48;;;6.10;99.90;;;;;;5075042;28;20036;-69
2023/12/20 05:54:48;;;;;;;34.80;12.25;;;6.20;99.90;;;;;;5074683;28;20024;-69
2023/12/20 05:57:14;;;;;;;39.55;12.75;;;6.20;99.90;;;;;;5074609;28;20505;-69
2023/12/20 05:59:39;;;;;;;31.25;13.65;;;6.20;99.90;;;;;;5075014;28;20532;-69
2023/12/20 06:02:05;;;;;;;42.03;13.88;;;6.20;99.90;;;;;;5074531;28;20036;-69
2023/12/20 06:04:31;;;;;;;35.17;12.45;;;6.30;99.90;;;;;;5074455;28;20020;-69
2023/12/20 06:06:57;;;;;;;39.55;14.45;;;6.30;99.90;;;;;;5074815;28;20020;-70
2023/12/20 06:09:22;;;;;;;36.08;14.27;;;6.30;99.90;;;;;;5074748;28;20059;-69
2023/12/20 06:11:48;;;;;;;39.40;14.00;;;6.30;99.90;;;;;;5074782;28;20032;-69
2023/12/20 06:14:13;;;;;;;42.83;15.65;;;6.30;99.90;;;;;;5074682;28;20116;-69
2023/12/20 06:16:39;;;;;;;47.33;16.30;;;6.30;99.90;;;;;;5074338;28;20020;-70
2023/12/20 06:19:05;;;;;;;45.45;17.33;;;6.30;99.90;;;;;;5074641;28;20115;-69
2023/12/20 06:21:30;;;;;;;48.50;16.42;;;6.30;99.90;;;;;;5074395;28;20102;-69
2023/12/20 06:23:58;;;;;;;47.45;18.05;;;6.30;99.90;;;;;;5074469;28;20029;-69
2023/12/20 06:26:24;;;;;;;47.03;17.92;;;6.40;99.90;;;;;;5074487;28;20025;-69
2023/12/20 06:28:49;;;;;;;39.78;17.65;;;6.30;99.90;;;;;;5074020;28;20112;-69
2023/12/20 06:31:15;;;;;;;42.80;16.33;;;6.40;99.90;;;;;;5074336;28;20039;-69
2023/12/20 06:33:41;;;;;;;43.70;17.33;;;6.40;99.90;;;;;;5074468;28;20115;-70
2023/12/20 06:36:06;;;;;;;44.63;17.73;;;6.40;99.90;;;;;;5073955;28;20024;-70
2023/12/20 06:38:32;;;;;;;47.38;18.05;;;6.40;99.90;;;;;;5074006;28;20033;-69
2023/12/20 06:40:58;;;;;;;47.03;16.48;;;6.40;99.90;;;;;;5073717;28;20029;-69
2023/12/20 06:43:24;;;;;;;51.47;17.73;;;6.40;99.90;;;;;;5073683;28;20020;-69
2023/12/20 06:45:50;;;;;;;49.03;18.80;;;6.40;99.90;;;;;;5072995;28;20497;-70
2023/12/20 06:48:16;;;;;;;52.95;19.48;;;6.40;99.90;;;;;;5074075;28;20024;-69
2023/12/20 06:50:41;;;;;;;42.00;19.25;;;6.40;99.90;;;;;;5074009;28;20051;-69
2023/12/20 06:53:07;;;;;;;47.00;19.35;;;6.40;99.90;;;;;;5073995;28;20386;-69
2023/12/20 06:55:35;;;;;;;49.08;19.77;;;6.40;99.90;;;;;;5073810;28;20028;-69
2023/12/20 06:58:02;;;;;;;50.42;21.10;;;6.40;99.90;;;;;;5073796;28;20024;-69
2023/12/20 07:00:27;;;;;;;45.78;20.38;;;6.40;99.90;;;;;;5073326;28;20024;-70
2023/12/20 07:02:53;;;;;;;49.85;19.13;;;6.40;99.90;;;;;;5073507;28;20394;-70
2023/12/20 07:05:19;;;;;;;46.25;19.58;;;6.40;99.90;;;;;;5073421;28;20479;-70
2023/12/20 07:07:46;;;;;;;54.38;19.98;;;6.40;99.90;;;;;;5073469;28;20024;-69
2023/12/20 07:10:12;;;;;;;53.10;21.45;;;6.40;99.90;;;;;;5073579;28;20037;-69
2023/12/20 07:12:38;;;;;;;52.63;20.73;;;6.40;99.90;;;;;;5071826;28;20024;-70
2023/12/20 07:15:07;;;;;;;45.28;19.58;;;6.40;99.90;;;;;;5067820;28;20032;-70
2023/12/20 07:17:33;;;;;;;54.33;20.45;;;6.40;99.90;;;;;;5072089;28;20493;-69
2023/12/20 07:20:03;;;;;;;47.28;22.02;;;6.40;99.90;;;;;;5073343;28;20047;-69
2023/12/20 07:22:31;;;;;;;53.83;20.13;;;6.40;99.90;;;;;;5069629;28;20020;-70
2023/12/20 07:24:57;;;;;;;52.05;19.98;;;6.40;99.90;;;;;;5069677;28;20028;-69
2023/12/20 07:27:23;;;;;;;54.67;20.25;;;6.40;99.90;;;;;;5067311;28;20062;-69
2023/12/20 07:29:49;;;;;;;41.85;19.42;;;;;;;;;;5072559;28;20032;-69
2023/12/20 07:32:16;;;;;;;46.92;18.88;;;;;;;;;;5073176;28;20555;-70
2023/12/20 07:34:43;;;;;;;48.42;19.92;;;;;;;;;;5073176;28;20038;-69
2023/12/20 07:37:10;;;;;;;58.47;21.48;;;6.40;99.90;;;;;;5059249;28;20033;-69
2023/12/20 07:39:36;;;;;;;56.47;19.70;;;;;;;;;;5052427;28;20116;-69
2023/12/20 07:42:03;;;;;;;39.40;18.58;;;;;;;;;;5055007;28;20076;-69
2023/12/20 07:44:29;;;;;;;52.17;19.65;;;;;;;;;;5067802;28;20465;-70
2023/12/20 07:46:54;;;;;;;45.15;18.13;;;6.50;99.90;;;;;;5066367;28;20024;-71
2023/12/20 07:49:21;;;;;;;47.53;18.67;;;;;;;;;;5058655;28;20082;-69
2023/12/20 07:51:46;;;;;;;42.47;18.60;;;6.50;99.90;;;;;;5066666;28;20066;-69
2023/12/20 07:54:13;;;;;;;43.95;18.10;;;;;;;;;;5072800;28;20064;-70
2023/12/20 07:56:39;;;;;;;44.80;17.73;;;6.50;99.90;;;;;;5074038;28;20068;-69
2023/12/20 07:59:05;;;;;;;42.40;19.45;;;6.50;99.90;;;;;;5075906;28;20032;-69
2023/12/20 08:01:31;;;;;;;47.38;19.20;;;6.50;99.90;;;;;;5070809;28;20024;-72
2023/12/20 08:03:57;;;;;;;47.70;19.45;;;;;;;;;;5060167;28;20029;-69
2023/12/20 08:06:23;;;;;;;43.33;18.02;;;6.50;99.90;;;;;;5062149;28;20044;-72
2023/12/20 08:08:49;;;;;;;41.92;18.48;;;6.60;99.90;;;;;;5056336;28;20104;-68
2023/12/20 08:11:14;;;;;;;54.70;19.00;;;6.60;99.90;;;;;;5059783;28;20116;-69
2023/12/20 08:13:40;;;;;;;44.67;18.17;;;6.70;99.90;;;;;;5064471;28;20422;-68
2023/12/20 08:16:05;;;;;;;51.20;18.90;;;6.60;99.90;;;;;;5067103;28;20056;-68
2023/12/20 08:18:31;;;;;;;36.92;16.95;;;6.60;99.90;;;;;;5060053;28;20090;-71
2023/12/20 08:20:56;;;;;;;39.30;17.92;;;6.70;99.90;;;;;;5060852;28;20082;-70
2023/12/20 08:23:22;;;;;;;42.95;18.05;;;6.70;99.90;;;;;;5064418;28;20024;-71
2023/12/20 08:25:48;;;;;;;47.85;18.58;;;6.70;99.90;;;;;;5065413;28;20389;-69
2023/12/20 08:28:14;;;;;;;44.92;17.40;;;6.70;99.90;;;;;;5066352;28;20035;-69
2023/12/20 08:30:40;;;;;;;35.92;15.27;;;;;;;;;;5068002;28;20383;-68
2023/12/20 08:33:11;;;;;;;43.55;15.18;;;6.70;99.90;;;;;;5068966;28;20506;-69
2023/12/20 08:35:36;;;;;;;42.65;16.83;;;6.70;99.90;;;;;;5079613;28;20021;-68
2023/12/20 08:38:04;;;;;;;43.30;16.90;;;;;;;;;;5068913;28;20398;-69
2023/12/20 08:40:30;;;;;;;40.20;16.77;;;;;;;;;;5065737;28;20039;-69
2023/12/20 08:42:56;;;;;;;40.70;17.65;;;;;;;;;;5062123;28;20469;-68
2023/12/20 08:45:22;;;;;;;40.13;16.00;;;6.80;99.90;;;;;;5069481;28;20059;-69
2023/12/20 08:47:47;;;;;;;32.95;15.52;;;6.80;99.90;;;;;;5074192;28;20071;-69
2023/12/20 08:50:15;;;;;;;37.80;15.75;;;;;;;;;;5070334;28;20028;-69
2023/12/20 08:52:42;;;;;;;41.72;17.08;;;;;;;;;;5066884;28;20024;-71
2023/12/20 08:55:10;;;;;;;37.08;15.30;;;;;;;;;;5061938;28;20099;-68
2023/12/20 08:57:37;;;;;;;41.65;15.30;;;;;;;;;;5075466;28;20130;-68
2023/12/20 09:00:04;;;;;;;38.03;16.65;;;;;;;;;;5075915;28;20082;-69
2023/12/20 09:02:31;;;;;;;44.38;16.55;;;;;;;;;;5090682;28;20059;-68
2023/12/20 09:04:57;;;;;;;38.70;15.85;;;;;;;;;;5089116;28;20037;-69
2023/12/20 09:07:25;;;;;;;38.53;16.52;;;;;;;;;;5063854;28;20055;-69
2023/12/20 09:09:51;;;;;;;38.63;15.73;;;6.90;99.90;;;;;;5062074;28;20043;-69
2023/12/20 09:12:20;;;;;;;40.40;16.17;;;;;;;;;;5061919;28;20111;-69
2023/12/20 09:14:47;;;;;;;41.97;16.20;;;;;;;;;;5066910;28;20036;-69
2023/12/20 09:17:14;;;;;;;45.97;16.98;;;;;;;;;;5072100;28;20052;-71
2023/12/20 09:19:41;;;;;;;43.30;15.38;;;;;;;;;;5073547;28;20038;-73
2023/12/20 09:22:08;;;;;;;37.47;14.60;;;;;;;;;;5066732;28;20031;-69
2023/12/20 09:24:35;;;;;;;39.10;15.77;;;;;;;;;;5071304;28;20048;-69
2023/12/20 09:27:02;;;;;;;34.92;14.43;;;;;;;;;;5064639;28;20067;-69
2023/12/20 09:29:29;;;;;;;39.95;15.55;;;;;;;;;;5063328;28;20035;-69
2023/12/20 09:31:57;;;;;;;40.33;15.38;;;;;;;;;;5058023;28;20052;-69
2023/12/20 09:34:24;;;;;;;41.40;15.18;;;;;;;;;;5062470;28;20112;-69
2023/12/20 09:36:50;;;;;;;32.97;14.75;;;;;;;;;;5068461;28;20036;-69
2023/12/20 09:39:20;;;;;;;42.83;14.63;;;;;;;;;;5067750;28;20091;-69
2023/12/20 09:41:47;;;;;;;43.53;15.43;;;;;;;;;;5067218;28;20058;-69
2023/12/20 09:44:18;;;;;;;35.45;15.57;;;;;;;;;;5057803;28;20075;-72
2023/12/20 09:46:45;;;;;;;32.38;13.70;;;;;;;;;;5068741;28;20025;-69
2023/12/20 09:49:14;;;;;;;34.28;14.32;;;;;;;;;;5068251;28;20379;-71
2023/12/20 09:51:43;;;;;;;42.28;16.30;;;;;;;;;;5061257;28;20098;-70
2023/12/20 09:54:11;;;;;;;31.05;13.85;;;;;;;;;;5067008;28;20101;-69
2023/12/20 09:56:38;;;;;;;44.65;15.13;;;;;;;;;;5074238;28;20098;-68
2023/12/20 09:59:05;;;;;;;28.58;14.32;;;;;;;;;;5070580;28;20048;-69
2023/12/20 10:01:33;;;;;;;38.08;15.32;;;;;;;;;;5068977;28;20036;-69
2023/12/20 10:04:02;;;;;;;32.50;14.68;;;;;;;;;;5064697;28;20486;-70
2023/12/20 10:06:29;;;;;;;40.38;15.07;;;;;;;;;;5064490;28;20024;-73
2023/12/20 10:08:56;;;;;;;42.92;15.82;;;;;;;;;;5069075;28;20024;-68
2023/12/20 10:11:23;;;;;;;39.28;14.70;;;;;;;;;;5059098;28;20462;-69
2023/12/20 10:13:50;;;;;;;36.83;13.95;;;;;;;;;;5070361;28;20032;-69
2023/12/20 10:16:17;;;;;;;37.47;14.10;;;;;;;;;;5068478;28;20469;-71
2023/12/20 10:18:44;;;;;;;43.55;15.43;;;;;;;;;;5059972;28;20539;-69
2023/12/20 10:21:11;;;;;;;40.88;15.63;;;;;;;;;;5056343;28;20539;-69
2023/12/20 10:23:39;;;;;;;41.65;14.85;;;;;;;;;;5070599;28;20432;-71
2023/12/20 10:26:06;;;;;;;33.90;13.48;;;;;;;;;;5067079;28;20104;-69
2023/12/20 10:28:37;;;;;;;40.38;13.70;;;;;;;;;;5068983;28;20024;-69
2023/12/20 10:31:03;;;;;;;35.40;12.80;;;;;;;;;;5065039;28;20031;-70
2023/12/20 10:33:32;;;;;;;36.08;13.32;;;;;;;;;;5060488;28;20497;-69
2023/12/20 10:35:59;;;;;;;37.33;13.52;;;;;;;;;;5064191;28;20432;-71
2023/12/20 10:38:26;;;;;;;41.50;12.70;;;;;;;;;;5071513;28;20412;-70
2023/12/20 10:40:56;;;;;;;26.83;11.57;;;;;;;;;;5057400;28;20102;-70
2023/12/20 10:43:23;;;;;;;32.80;12.57;;;;;;;;;;5073495;28;20036;-69
2023/12/20 10:45:50;;;;;;;30.98;11.98;;;;;;;;;;5061238;28;20033;-69
2023/12/20 10:48:17;;;;;;;34.33;11.98;;;;;;;;;;5057626;28;20021;-70
2023/12/20 10:50:44;;;;;;;30.80;12.98;;;;;;;;;;5063372;28;20537;-69
2023/12/20 10:53:12;;;;;;;29.13;11.90;;;;;;;;;;5061642;28;20491;-70
2023/12/20 10:55:39;;;;;;;31.38;11.02;;;;;;;;;;5067179;28;20032;-69
2023/12/20 10:58:09;;;;;;;28.05;10.32;;;;;;;;;;5068700;28;20032;-69
2023/12/20 11:00:41;;;;;;;25.90;9.77;;;;;;;;;;5053220;28;20040;-69
2023/12/20 11:03:10;;;;;;;28.20;10.35;;;;;;;;;;5053371;28;20024;-69
2023/12/20 11:05:56;;;;;;;25.27;10.35;;;;;;;;;;5065186;28;20029;-70
2023/12/20 11:08:27;;;;;;;34.90;10.98;;;;;;;;;;5063547;28;20470;-68
2023/12/20 11:14:00;;;;;;;36.42;10.80;;;;;;;;;;5069990;28;20386;-70
2023/12/20 11:16:27;;;;;;;34.35;11.30;;;;;;;;;;5070221;28;20032;-67
2023/12/20 11:18:54;;;;;;;26.20;9.45;;;;;;;;;;5038760;28;20051;-67
2023/12/20 11:21:22;;;;;;;32.90;9.30;;;;;;;;;;5042361;28;20091;-67
2023/12/20 11:23:49;;;;;;;22.83;9.25;;;;;;;;;;5050001;28;20041;-68
2023/12/20 11:26:23;;;;;;;35.15;9.82;;;;;;;;;;5050299;28;20040;-69
2023/12/20 11:28:50;;;;;;;28.60;9.25;;;;;;;;;;5039126;28;20044;-68
2023/12/20 11:31:17;;;;;;;23.48;9.40;;;;;;;;;;5045526;28;20518;-68
2023/12/20 11:33:48;;;;;;;25.67;9.93;;;;;;;;;;5050414;28;20495;-68
2023/12/20 11:36:16;;;;;;;28.42;9.95;;;;;;;;;;5049924;28;20021;-68
2023/12/20 11:38:59;;;;;;;25.55;9.73;;;;;;;;;;5042366;28;20033;-68
2023/12/20 11:41:27;;;;;;;26.30;10.18;;;;;;;;;;5040781;28;20113;-68
2023/12/20 11:43:56;;;;;;;33.08;10.23;;;;;;;;;;5049020;28;20033;-70
2023/12/20 11:46:23;;;;;;;36.80;10.88;;;;;;;;;;5041738;28;20454;-69
2023/12/20 11:48:50;;;;;;;25.70;10.30;;;;;;;;;;5044414;28;20064;-68
2023/12/20 11:51:17;;;;;;;32.67;10.90;;;;;;;;;;5049610;28;20045;-68
2023/12/20 11:53:44;;;;;;;25.75;11.10;;;;;;;;;;5050559;28;20061;-69
2023/12/20 11:56:12;;;;;;;32.45;10.80;;;;;;;;;;5048937;28;20037;-68
2023/12/20 11:58:39;;;;;;;39.17;12.50;;;;;;;;;;5049657;28;20483;-68
2023/12/20 12:01:09;;;;;;;34.85;11.55;;;;;;;;;;5049660;28;20029;-69
2023/12/20 12:03:36;;;;;;;29.75;10.65;;;;;;;;;;5048985;28;20032;-68
2023/12/20 12:06:04;;;;;;;31.20;10.07;;;;;;;;;;5048983;28;20045;-69
2023/12/20 12:08:30;;;;;;;31.05;9.23;;;;;;;;;;5059954;28;20033;-67
2023/12/20 12:10:56;;;;;;;26.35;8.85;;;;;;;;;;5051820;28;20402;-67
2023/12/20 12:13:22;;;;;;;28.73;9.02;;;;;;;;;;5046958;28;20091;-67
2023/12/20 12:15:50;;;;;;;26.50;8.52;;;;;;;;;;5049562;28;20029;-68
2023/12/20 12:18:16;;;;;;;23.55;8.60;;;;;;;;;;5049525;28;20068;-67
2023/12/20 12:20:42;;;;;;;23.73;8.00;;;;;;;;;;5047940;28;20033;-68
2023/12/20 12:23:08;;;;;;;24.27;7.97;;;;;;;;;;5047482;28;20116;-68
2023/12/20 12:25:37;;;;;;;23.88;7.40;;;;;;;;;;5034007;28;20105;-69
2023/12/20 12:28:03;;;;;;;26.00;7.45;;;;;;;;;;5030723;28;20064;-67
2023/12/20 12:30:29;;;;;;;18.00;6.60;;;;;;;;;;5025593;28;20534;-68
2023/12/20 12:32:57;;;;;;;23.15;6.57;;;;;;;;;;5026598;28;20129;-68
2023/12/20 12:35:25;;;;;;;20.55;6.70;;;;;;;;;;5032604;28;20502;-68
2023/12/20 12:37:53;;;;;;;16.90;6.95;;;;;;;;;;5035106;28;20034;-67
2023/12/20 12:40:21;;;;;;;18.73;6.72;;;;;;;;;;5035228;28;20025;-68
2023/12/20 12:42:49;;;;;;;31.95;8.63;;;;;;;;;;5035867;28;20037;-68
2023/12/20 12:45:17;;;;;;;28.67;9.55;;;;;;;;;;5033514;28;20475;-68
2023/12/20 12:47:45;;;;;;;26.77;10.23;;;;;;;;;;5034925;28;20039;-68
2023/12/20 12:50:13;;;;;;;28.38;10.93;;;;;;;;;;5036373;28;20099;-67
2023/12/20 12:52:41;;;;;;;24.33;10.82;;;;;;;;;;5035563;28;20026;-68
2023/12/20 12:55:09;;;;;;;31.17;11.68;;;;;;;;;;5035571;28;20036;-69
2023/12/20 12:57:37;;;;;;;28.35;12.68;;;;;;;;;;5024853;28;20030;-68
2023/12/20 13:00:08;;;;;;;26.65;12.82;;;;;;;;;;5028202;28;20026;-68
2023/12/20 13:02:41;;;;;;;30.92;13.25;;;;;;;;;;5046700;28;20024;-68
2023/12/20 13:05:09;;;;;;;29.17;13.15;;;;;;;;;;5035170;28;20053;-69
2023/12/20 13:07:39;;;;;;;25.70;14.43;;;;;;;;;;5034852;28;20116;-69
2023/12/20 13:10:07;;;;;;;31.23;14.52;;;;;;;;;;5036710;28;20032;-68